Santa Margherita — V7JA2 — position and weather

sailwx.info

Track history (hours):
 
Tides and Currents Weather Stations Pressure Air Temp Water Temp Dewpoint Dewpoint Depression Visibility Wind Speed Wind Dir Waves Ship Positions

Santa Margherita

Last reported at 2016-Jul-26 07:33 UTC. Time now 2016-Jul-27 01:18 UTC.
Position N 40°57' E 028°54'.

Length 190 m; draft 6.5 m.

MMSI: 538090191.

Date/timePositionNaut miles runAvg speedWind from/ knotsBaromVisibWave heightAir tempDewpointWater temp
2016-Jul-26 07:33N 40°57' E 028°54'0 0.1
2016-Jul-26 04:33N 40°57' E 028°54'0 0.0
2016-Jul-26 03:27N 40°57' E 028°54'0 0.0
2016-Jul-26 01:21N 40°57' E 028°54'0 0.0
2016-Jul-26 00:33N 40°57' E 028°54'0 0.0
2016-Jul-25 23:33N 40°57' E 028°54'0 0.0
2016-Jul-25 22:05N 40°57' E 028°54'  
2016-Jul-17 14:27N 37°53' E 025°40'2711.5
2016-Jul-17 12:06N 37°27' E 025°50'19811.1
2016-Jul-16 18:21N 34°56' E 028°29'911.5
2016-Jul-16 17:33N 34°50' E 028°36'1111.4
2016-Jul-16 16:33N 34°41' E 028°45'1111.4
2016-Jul-16 15:33N 34°32' E 028°54'1211.3
2016-Jul-16 14:30N 34°23' E 029°04'1211.4
2016-Jul-16 13:30N 34°15' E 029°13'1111.7
2016-Jul-16 12:33N 34°07' E 029°22'1211.8
2016-Jul-16 11:33N 33°58' E 029°31'1211.8
2016-Jul-16 10:33N 33°49' E 029°41'1412.0
2016-Jul-16 09:21N 33°38' E 029°52'1012.3
2016-Jul-16 08:33N 33°31' E 029°60'1212.3
2016-Jul-16 07:33N 33°21' E 030°09'  
Track history (hours):
 
Tides and Currents Weather Stations Pressure Air Temp Water Temp Dewpoint Dewpoint Depression Visibility Wind Speed Wind Dir Waves Ship Positions

Santa Margherita

Last reported at 2016-Jul-26 07:33 UTC. Time now 2016-Jul-27 01:18 UTC.
Position N 40°57' E 028°54'.

Length 190 m; draft 6.5 m.

MMSI: 538090191.

Date/timePositionNaut miles runAvg speedWind from/ knotsBaromVisibWave heightAir tempDewpointWater temp
2016-Jul-26 07:33N 40°57' E 028°54'0 0.1
2016-Jul-26 04:33N 40°57' E 028°54'0 0.0
2016-Jul-26 03:27N 40°57' E 028°54'0 0.0
2016-Jul-26 01:21N 40°57' E 028°54'0 0.0
2016-Jul-26 00:33N 40°57' E 028°54'0 0.0
2016-Jul-25 23:33N 40°57' E 028°54'0 0.0
2016-Jul-25 22:05N 40°57' E 028°54'  
2016-Jul-17 14:27N 37°53' E 025°40'2711.5
2016-Jul-17 12:06N 37°27' E 025°50'19811.1
2016-Jul-16 18:21N 34°56' E 028°29'911.5
2016-Jul-16 17:33N 34°50' E 028°36'1111.4
2016-Jul-16 16:33N 34°41' E 028°45'1111.4
2016-Jul-16 15:33N 34°32' E 028°54'1211.3
2016-Jul-16 14:30N 34°23' E 029°04'1211.4
2016-Jul-16 13:30N 34°15' E 029°13'1111.7
2016-Jul-16 12:33N 34°07' E 029°22'1211.8
2016-Jul-16 11:33N 33°58' E 029°31'1211.8
2016-Jul-16 10:33N 33°49' E 029°41'1412.0
2016-Jul-16 09:21N 33°38' E 029°52'1012.3
2016-Jul-16 08:33N 33°31' E 029°60'1212.3
2016-Jul-16 07:33N 33°21' E 030°09'  

Dump ship's entire track history